Kailua, HI (96734)

10:29 AM HST on April 27, 2017 (GMT -1000)
Kailua Estates | | Change Station

Elev 7 ft 21.40 °N, 157.73 °W | Updated 24 seconds ago

Partly Cloudy
Partly Cloudy
85.3 °F
Feels Like 90 °F
N
4.7
Wind Variable Wind from East

Today
High -- | Low -- °F
--% Chance of Precip.
Yesterday
High -- | Low -- °F
Precip. -- in
Pressure 30.03 in
Visibility 7.0 miles
Clouds Scattered Clouds 2700 ft
Heat Index 90 °F
Dew Point 70 °F
Humidity 60%
Rainfall 0.09 in
Snow Depth Not available.
6:02 AM 6:54 PM
Waxing Crescent, 3% visible
METAR PHNG 271957Z 05006KT 7SM SCT027 27/21 A3004 RMK SLP169 T02720206
Pressure 30.03 in
Visibility 7.0 miles
Clouds Scattered Clouds 2700 ft
Heat Index 90 °F
Dew Point 70 °F
Humidity 60%
Rainfall 0.09 in
Snow Depth Not available.
6:02 AM 6:54 PM
Waxing Crescent, 3% visible
METAR PHNG 271957Z 05006KT 7SM SCT027 27/21 A3004 RMK SLP169 T02720206

Get Severe Weather Alerts

Thanks for signing up!

Be on the lookout for a verification email in your inbox.

You'll start receiving the daily forecast at 8 AM.

×

10-Day Weather Forecast

Almanac

Astronomy

Apr. 27, 2017 Rise Set
Actual Time
Civil Twilight
Nautical Twilight
Astronomical Twilight
Moon
Length of Visible Light
Length of Day
Tomorrow will be .
, % of the Moon is Illuminated

Today's Extremes

State Highs State Lows

Community

WunderPhotos

WunderBlog® & News

Nearby

Air Quality

  Air Quality AQ Index Pollutant
Not available.

Snow Depth

Station Depth Elevation

Earthquake Activity

City Distance Mag. Time & Date
Minimum magnitude displayed is 2.5.

Coastal Water Temperatures

Place Temperature

Stations

Nearby Weather Stations

Station Location Temp. Windchill Dew Point Humidity Wind Precip. Elev Updated Type
                   

Watches & Warnings

There are currently no watches in effect.